createdAt,value
2023-01-28T00:00:36.233Z,4.15
2023-01-28T00:03:03.332Z,4.20
2023-01-28T00:05:30.407Z,4.45
2023-01-28T00:07:57.885Z,3.90
2023-01-28T00:10:24.898Z,4.05
2023-01-28T00:12:52.020Z,4.10
2023-01-28T00:15:19.046Z,3.97
2023-01-28T00:17:46.001Z,4.10
2023-01-28T00:20:13.657Z,3.70
2023-01-28T00:22:40.700Z,4.13
2023-01-28T00:25:07.812Z,4.07
2023-01-28T00:27:34.916Z,3.85
2023-01-28T00:30:02.023Z,4.43
2023-01-28T00:32:29.025Z,4.47
2023-01-28T00:34:56.033Z,4.55
2023-01-28T00:37:23.072Z,4.60
2023-01-28T00:39:50.381Z,4.50
2023-01-28T00:42:17.361Z,4.30
2023-01-28T00:44:44.407Z,4.53
2023-01-28T00:47:11.449Z,5.43
2023-01-28T00:49:38.462Z,4.97
2023-01-28T00:52:05.598Z,4.57
2023-01-28T00:54:32.647Z,5.00
2023-01-28T00:56:59.841Z,4.72
2023-01-28T00:59:27.783Z,4.80
2023-01-28T01:01:54.830Z,5.45
2023-01-28T01:04:26.341Z,5.05
2023-01-28T01:06:53.589Z,4.85
2023-01-28T01:09:20.702Z,6.07
2023-01-28T01:11:47.821Z,5.13
2023-01-28T01:14:14.994Z,5.47
2023-01-28T01:16:41.991Z,5.82
2023-01-28T01:19:09.343Z,5.05
2023-01-28T01:21:36.363Z,5.20
2023-01-28T01:24:03.477Z,5.50
2023-01-28T01:26:30.509Z,4.07
2023-01-28T01:28:57.543Z,5.20
2023-01-28T01:31:24.675Z,4.75
2023-01-28T01:33:52.095Z,4.82
2023-01-28T01:36:21.570Z,4.60
2023-01-28T01:38:48.869Z,5.15
2023-01-28T01:41:29.396Z,4.60
2023-01-28T01:46:43.481Z,4.60
2023-01-28T01:49:18.972Z,4.32
2023-01-28T01:51:46.282Z,4.82
2023-01-28T01:54:13.264Z,5.45
2023-01-28T01:56:41.030Z,5.35
2023-01-28T01:59:09.748Z,5.57
2023-01-28T02:01:36.764Z,5.63
2023-01-28T02:04:03.742Z,5.10
2023-01-28T02:06:31.391Z,5.97
2023-01-28T02:08:58.436Z,5.13
2023-01-28T02:11:29.881Z,5.30
2023-01-28T02:13:57.399Z,5.55
2023-01-28T02:16:24.481Z,6.57
2023-01-28T02:18:51.573Z,5.60
2023-01-28T02:21:37.126Z,5.93
2023-01-28T02:24:22.918Z,5.63
2023-01-28T02:27:08.740Z,5.85
2023-01-28T02:29:51.118Z,5.80
2023-01-28T02:32:37.454Z,5.50
2023-01-28T02:35:15.508Z,5.43
2023-01-28T02:37:52.725Z,5.43
2023-01-28T02:40:21.223Z,5.22
2023-01-28T02:42:48.289Z,5.53
2023-01-28T02:45:19.403Z,5.15
2023-01-28T02:47:58.467Z,4.90
2023-01-28T02:50:26.862Z,5.32
2023-01-28T02:53:16.770Z,5.38
2023-01-28T02:55:49.928Z,4.95
2023-01-28T02:58:35.863Z,5.35
2023-01-28T03:01:02.854Z,5.22
2023-01-28T03:03:32.913Z,5.55
2023-01-28T03:06:04.200Z,5.28
2023-01-28T03:08:54.117Z,4.95
2023-01-28T03:11:39.710Z,8.10
2023-01-28T03:14:27.376Z,5.40
2023-01-28T03:17:12.705Z,5.25
2023-01-28T03:19:58.117Z,5.07
2023-01-28T03:22:43.654Z,4.68
2023-01-28T03:25:29.229Z,4.47
2023-01-28T03:28:16.242Z,4.43
2023-01-28T03:31:01.702Z,4.13
2023-01-28T03:33:47.501Z,4.20
2023-01-28T03:36:33.062Z,4.03
2023-01-28T03:39:00.045Z,3.85
2023-01-28T03:41:27.059Z,3.90
2023-01-28T03:43:54.774Z,4.05
2023-01-28T03:46:21.836Z,3.38
2023-01-28T03:48:48.848Z,3.53
2023-01-28T03:51:16.423Z,3.42
2023-01-28T03:53:43.488Z,3.30
2023-01-28T03:56:18.470Z,3.25
2023-01-28T03:58:56.435Z,3.17
2023-01-28T04:01:24.070Z,3.38
2023-01-28T04:03:51.168Z,3.45
2023-01-28T04:06:18.141Z,3.65
2023-01-28T04:08:48.891Z,3.60
2023-01-28T04:11:15.965Z,4.00
2023-01-28T04:13:43.502Z,4.10
2023-01-28T04:16:11.001Z,4.00
2023-01-28T04:18:38.052Z,3.83
2023-01-28T04:21:05.195Z,3.90
2023-01-28T04:23:32.213Z,3.97
2023-01-28T04:25:59.214Z,4.28
2023-01-28T04:28:26.221Z,3.70
2023-01-28T04:30:53.369Z,4.40
2023-01-28T04:33:20.462Z,4.45
2023-01-28T04:35:47.535Z,4.90
2023-01-28T04:38:14.625Z,4.25
2023-01-28T04:40:41.625Z,5.18
2023-01-28T04:43:09.420Z,4.32
2023-01-28T04:45:36.483Z,4.15
2023-01-28T04:48:03.535Z,4.20
2023-01-28T04:50:30.542Z,4.50
2023-01-28T04:52:57.595Z,4.47
2023-01-28T04:55:24.627Z,4.03
2023-01-28T04:57:51.631Z,4.63
2023-01-28T05:00:18.939Z,4.18
2023-01-28T05:02:45.985Z,4.88
2023-01-28T05:05:13.550Z,4.18
2023-01-28T05:07:40.734Z,3.92
2023-01-28T05:10:07.919Z,4.15
2023-01-28T05:12:34.952Z,3.83
2023-01-28T05:15:02.009Z,3.90
2023-01-28T05:17:29.348Z,3.67
2023-01-28T05:19:56.412Z,3.83
2023-01-28T05:22:23.480Z,3.97
2023-01-28T05:24:50.456Z,3.83
2023-01-28T05:27:17.493Z,3.97
2023-01-28T05:29:44.608Z,4.10
2023-01-28T05:32:11.687Z,3.65
2023-01-28T05:34:38.692Z,3.50
2023-01-28T05:37:05.697Z,4.05
2023-01-28T05:39:32.731Z,3.95
2023-01-28T05:41:59.772Z,4.32
2023-01-28T05:44:26.797Z,3.17
2023-01-28T05:46:53.817Z,3.40
2023-01-28T05:49:20.873Z,4.43
2023-01-28T05:51:48.319Z,3.67
2023-01-28T05:54:15.400Z,3.45
2023-01-28T05:56:42.463Z,3.20
2023-01-28T05:59:11.435Z,3.33
2023-01-28T06:01:38.575Z,3.30
2023-01-28T06:04:05.594Z,3.17
2023-01-28T06:06:32.665Z,3.58
2023-01-28T06:08:59.723Z,3.67
2023-01-28T06:11:27.376Z,2.85
2023-01-28T06:13:54.451Z,3.65
2023-01-28T06:16:21.498Z,3.00
2023-01-28T06:18:48.504Z,3.17
2023-01-28T06:21:15.478Z,2.85
2023-01-28T06:23:42.546Z,2.85
2023-01-28T06:26:09.592Z,2.88
2023-01-28T06:28:36.592Z,3.22
2023-01-28T06:31:03.756Z,3.08
2023-01-28T06:33:30.887Z,3.03
2023-01-28T06:35:57.902Z,2.85
2023-01-28T06:38:24.909Z,2.50
2023-01-28T06:40:52.705Z,2.63
2023-01-28T06:43:19.700Z,2.65
2023-01-28T06:45:46.833Z,2.70
2023-01-28T06:48:13.910Z,2.55
2023-01-28T06:50:41.031Z,2.63
2023-01-28T06:53:08.070Z,2.83
2023-01-28T06:55:35.100Z,3.08
2023-01-28T06:58:02.090Z,2.53
2023-01-28T07:00:29.143Z,2.30
2023-01-28T07:02:57.264Z,2.40
2023-01-28T07:05:24.593Z,2.30
2023-01-28T07:07:51.646Z,2.47
2023-01-28T07:10:18.739Z,2.20
2023-01-28T07:12:46.013Z,2.30
2023-01-28T07:15:15.023Z,2.22
2023-01-28T07:17:42.460Z,2.50
2023-01-28T07:20:10.457Z,2.88
2023-01-28T07:22:39.440Z,2.20
2023-01-28T07:25:07.072Z,2.30
2023-01-28T07:27:34.258Z,2.20
2023-01-28T07:30:01.324Z,2.08
2023-01-28T07:32:28.870Z,2.45
2023-01-28T07:34:55.899Z,2.40
2023-01-28T07:37:23.034Z,2.20
2023-01-28T07:39:50.175Z,2.05
2023-01-28T07:42:17.926Z,2.67
2023-01-28T07:44:45.111Z,2.47
2023-01-28T07:47:12.703Z,2.25
2023-01-28T07:49:39.909Z,2.47
2023-01-28T07:52:07.430Z,2.95
2023-01-28T07:54:34.668Z,2.47
2023-01-28T07:57:01.747Z,2.10
2023-01-28T07:59:28.839Z,2.60
2023-01-28T08:01:55.900Z,2.22
2023-01-28T08:04:23.106Z,2.50
2023-01-28T08:06:52.168Z,2.78
2023-01-28T08:09:19.211Z,2.50
2023-01-28T08:11:46.226Z,2.42
2023-01-28T08:14:13.295Z,3.15
2023-01-28T08:16:40.312Z,2.00
2023-01-28T08:19:07.364Z,2.78
2023-01-28T08:21:34.466Z,2.60
2023-01-28T08:24:01.500Z,3.03
2023-01-28T08:26:28.587Z,3.25
2023-01-28T08:28:55.570Z,2.45
2023-01-28T08:31:22.642Z,2.10
2023-01-28T08:33:49.809Z,1.95
2023-01-28T08:36:16.898Z,1.95
2023-01-28T08:38:43.981Z,1.83
2023-01-28T08:41:11.082Z,1.83
2023-01-28T08:43:38.198Z,1.60
2023-01-28T08:46:08.493Z,1.70
2023-01-28T08:48:35.610Z,1.55
2023-01-28T08:51:02.608Z,1.60
2023-01-28T08:53:29.639Z,1.55
2023-01-28T08:55:56.707Z,1.70
2023-01-28T08:58:23.735Z,1.42
2023-01-28T09:00:50.990Z,1.50
2023-01-28T09:03:18.424Z,1.50
2023-01-28T09:05:45.525Z,1.95
2023-01-28T09:08:13.637Z,1.50
2023-01-28T09:10:42.012Z,1.40
2023-01-28T09:13:13.294Z,1.50
2023-01-28T09:15:40.532Z,2.08
2023-01-28T09:18:07.687Z,1.85
2023-01-28T09:20:34.782Z,1.60
2023-01-28T09:23:02.019Z,1.92
2023-01-28T09:25:29.054Z,1.80
2023-01-28T09:27:56.032Z,2.22
2023-01-28T09:30:23.184Z,2.70
2023-01-28T09:32:51.341Z,1.77
2023-01-28T09:35:19.335Z,2.25
2023-01-28T09:37:46.668Z,1.80
2023-01-28T09:40:18.170Z,1.40
2023-01-28T09:42:48.656Z,1.15
2023-01-28T09:47:51.576Z,1.50
2023-01-28T09:50:24.859Z,1.70
2023-01-28T09:52:51.867Z,1.80
2023-01-28T09:55:38.808Z,1.80
2023-01-28T09:58:06.737Z,1.80
2023-01-28T10:00:37.551Z,1.77
2023-01-28T10:03:07.678Z,1.70
2023-01-28T10:05:44.666Z,1.83
2023-01-28T10:08:47.502Z,1.75
2023-01-28T10:11:20.652Z,1.60
2023-01-28T10:14:16.814Z,1.80
2023-01-28T10:16:44.312Z,1.52
2023-01-28T10:19:11.978Z,2.33
2023-01-28T10:21:49.715Z,2.10
2023-01-28T10:24:25.732Z,1.55
2023-01-28T10:26:53.066Z,1.60
2023-01-28T10:29:22.877Z,2.00
2023-01-28T10:31:56.981Z,1.42
2023-01-28T10:34:24.142Z,1.67
2023-01-28T10:36:51.210Z,1.30
2023-01-28T10:39:19.392Z,1.63
2023-01-28T10:41:57.322Z,1.60
2023-01-28T10:44:33.339Z,1.75
2023-01-28T10:47:00.654Z,1.45
2023-01-28T10:49:28.459Z,1.52
2023-01-28T10:51:55.549Z,1.55
2023-01-28T10:54:23.717Z,7.50
2023-01-28T10:56:51.365Z,4.03
2023-01-28T10:59:28.134Z,3.15
2023-01-28T11:01:59.035Z,2.40
2023-01-28T11:04:30.293Z,1.60
2023-01-28T11:07:00.408Z,1.40
2023-01-28T11:09:31.253Z,1.77
2023-01-28T11:12:13.783Z,2.78
2023-01-28T11:14:44.823Z,2.13
2023-01-28T11:17:16.837Z,1.90
2023-01-28T11:19:43.988Z,1.50
2023-01-28T11:22:23.064Z,1.42
2023-01-28T11:24:50.398Z,1.50
2023-01-28T11:27:17.869Z,2.30
2023-01-28T11:29:44.928Z,1.80
2023-01-28T11:32:19.062Z,2.00
2023-01-28T11:34:53.137Z,1.42
2023-01-28T11:37:22.451Z,2.47
2023-01-28T11:39:49.751Z,1.70
2023-01-28T11:42:18.266Z,1.23
2023-01-28T11:44:45.671Z,1.73
2023-01-28T11:47:31.795Z,2.58
2023-01-28T11:49:59.023Z,2.08
2023-01-28T11:53:05.125Z,2.20
2023-01-28T11:58:02.876Z,4.90
2023-01-28T12:00:48.423Z,2.17
2023-01-28T12:03:21.485Z,1.40
2023-01-28T12:05:55.966Z,1.95
2023-01-28T12:08:26.108Z,1.92
2023-01-28T12:10:55.987Z,2.05
2023-01-28T12:13:29.012Z,2.28
2023-01-28T12:16:09.026Z,1.95
2023-01-28T12:19:03.186Z,2.22
2023-01-28T12:21:43.088Z,3.08
2023-01-28T12:24:16.381Z,1.90
2023-01-28T12:26:46.727Z,1.80
2023-01-28T12:29:26.586Z,1.95
2023-01-28T12:32:01.012Z,1.98
2023-01-28T12:34:46.986Z,1.73
2023-01-28T12:37:37.404Z,1.58
2023-01-28T12:40:10.452Z,1.55
2023-01-28T12:42:45.210Z,1.70
2023-01-28T12:45:19.809Z,1.60
2023-01-28T12:47:49.320Z,1.80
2023-01-28T12:50:23.905Z,2.90
2023-01-28T12:52:52.889Z,2.75
2023-01-28T12:55:35.767Z,5.95
2023-01-28T12:58:02.848Z,3.90
2023-01-28T13:00:30.977Z,2.35
2023-01-28T13:03:01.520Z,2.17
2023-01-28T13:08:05.708Z,2.33
2023-01-28T13:10:39.824Z,1.70
2023-01-28T13:13:07.194Z,1.60
2023-01-28T13:15:34.240Z,2.20
2023-01-28T13:18:02.181Z,1.90
2023-01-28T13:20:32.334Z,2.20
2023-01-28T13:23:02.833Z,1.95
2023-01-28T13:27:57.997Z,1.80
2023-01-28T13:30:28.145Z,1.70
2023-01-28T13:32:58.962Z,1.90
2023-01-28T13:35:41.380Z,2.00
2023-01-28T13:38:09.187Z,1.83
2023-01-28T13:40:36.561Z,2.28
2023-01-28T13:43:07.152Z,2.35
2023-01-28T13:48:01.310Z,3.45
2023-01-28T13:50:34.387Z,3.92
2023-01-28T13:53:03.539Z,3.05
2023-01-28T13:55:43.500Z,4.72
2023-01-28T13:58:30.381Z,3.33
2023-01-28T14:01:11.676Z,2.10
2023-01-28T14:03:52.200Z,2.50
2023-01-28T14:06:25.952Z,2.28
2023-01-28T14:09:05.908Z,2.92
2023-01-28T14:11:52.464Z,2.90
2023-01-28T14:14:22.761Z,2.75
2023-01-28T14:16:55.689Z,2.97
2023-01-28T14:19:29.885Z,3.55
2023-01-28T14:21:56.920Z,3.42
2023-01-28T14:24:24.104Z,3.53
2023-01-28T14:26:54.117Z,2.55
2023-01-28T14:29:44.794Z,3.50
2023-01-28T14:34:38.972Z,2.55
2023-01-28T14:37:07.108Z,3.20
2023-01-28T14:39:35.325Z,3.13
2023-01-28T14:42:02.984Z,3.10
2023-01-28T14:44:34.243Z,3.20
2023-01-28T14:47:01.377Z,2.28
2023-01-28T14:49:46.468Z,2.50
2023-01-28T14:52:27.324Z,2.85
2023-01-28T14:54:54.348Z,3.10
2023-01-28T14:57:39.962Z,2.90
2023-01-28T15:00:17.256Z,3.17
2023-01-28T15:02:44.893Z,3.50
2023-01-28T15:05:22.426Z,2.90
2023-01-28T15:07:49.529Z,2.53
2023-01-28T15:10:18.135Z,2.80
2023-01-28T15:12:47.777Z,2.40
2023-01-28T15:15:21.031Z,3.20
2023-01-28T15:17:48.229Z,3.15
2023-01-28T15:20:22.499Z,2.72
2023-01-28T15:22:49.739Z,2.38
2023-01-28T15:25:17.916Z,3.25
2023-01-28T15:27:45.118Z,4.10
2023-01-28T15:30:25.618Z,3.60
2023-01-28T15:32:59.912Z,4.63
2023-01-28T15:35:27.201Z,4.03
2023-01-28T15:37:54.297Z,3.00
2023-01-28T15:40:21.910Z,3.22
2023-01-28T15:42:49.222Z,3.20
2023-01-28T15:45:20.456Z,3.53
2023-01-28T15:47:47.990Z,3.20
2023-01-28T15:50:22.045Z,4.10
2023-01-28T15:52:49.182Z,4.03
2023-01-28T15:55:42.709Z,3.83
2023-01-28T15:58:18.016Z,4.78
2023-01-28T16:00:45.762Z,4.57
2023-01-28T16:03:18.415Z,4.95
2023-01-28T16:05:54.263Z,5.03
2023-01-28T16:08:25.500Z,5.30
2023-01-28T16:10:56.271Z,5.95
2023-01-28T16:13:26.792Z,7.80
2023-01-28T16:18:31.778Z,9.23
2023-01-28T16:20:59.275Z,7.93
2023-01-28T16:23:27.417Z,8.35
2023-01-28T16:26:26.994Z,7.13
2023-01-28T16:28:54.177Z,4.78
2023-01-28T16:31:21.400Z,4.63
2023-01-28T16:33:48.568Z,4.50
2023-01-28T16:36:16.278Z,4.38
2023-01-28T16:38:43.322Z,4.85
2023-01-28T16:41:14.150Z,4.25
2023-01-28T16:43:41.213Z,4.38
2023-01-28T16:46:10.464Z,5.07
2023-01-28T16:48:37.553Z,5.72
2023-01-28T16:51:04.795Z,6.63
2023-01-28T16:53:33.451Z,10.57
2023-01-28T16:56:00.576Z,10.77
2023-01-28T16:58:27.684Z,9.40
2023-01-28T17:00:54.798Z,10.20
2023-01-28T17:03:22.349Z,7.47
2023-01-28T17:05:49.575Z,5.45
2023-01-28T17:08:16.916Z,5.55
2023-01-28T17:10:44.524Z,5.88
2023-01-28T17:13:11.524Z,6.03
2023-01-28T17:15:38.575Z,9.98
2023-01-28T17:18:05.766Z,16.25
2023-01-28T17:20:37.340Z,9.70
2023-01-28T17:23:06.943Z,9.73
2023-01-28T17:25:37.047Z,8.73
2023-01-28T17:28:04.173Z,8.63
2023-01-28T17:30:31.260Z,7.95
2023-01-28T17:32:58.295Z,8.55
2023-01-28T17:35:25.328Z,9.07
2023-01-28T17:37:55.567Z,10.38
2023-01-28T17:40:22.828Z,10.25
2023-01-28T17:42:49.847Z,9.45
2023-01-28T17:45:17.463Z,9.23
2023-01-28T17:47:44.802Z,8.73
2023-01-28T17:50:12.124Z,8.27
2023-01-28T17:52:40.892Z,7.32
2023-01-28T17:55:09.299Z,6.60
2023-01-28T17:57:45.608Z,5.72
2023-01-28T18:00:12.856Z,5.28
2023-01-28T18:02:39.907Z,4.70
2023-01-28T18:05:07.712Z,4.18
2023-01-28T18:07:34.787Z,4.20
2023-01-28T18:10:01.985Z,4.28
2023-01-28T18:12:28.990Z,4.68
2023-01-28T18:14:56.034Z,4.95
2023-01-28T18:17:26.997Z,4.43
2023-01-28T18:19:54.035Z,4.80
2023-01-28T18:22:21.093Z,5.05
2023-01-28T18:24:48.145Z,5.75
2023-01-28T18:27:15.255Z,6.30
2023-01-28T18:29:42.274Z,5.93
2023-01-28T18:32:09.297Z,5.50
2023-01-28T18:34:36.403Z,5.35
2023-01-28T18:37:03.631Z,5.40
2023-01-28T18:39:30.999Z,5.53
2023-01-28T18:41:58.284Z,5.25
2023-01-28T18:44:25.735Z,5.60
2023-01-28T18:46:52.872Z,4.30
2023-01-28T18:49:19.897Z,5.80
2023-01-28T18:51:46.882Z,6.57
2023-01-28T18:54:14.832Z,5.60
2023-01-28T18:56:42.112Z,6.95
2023-01-28T18:59:10.752Z,8.15
2023-01-28T19:01:37.889Z,9.40
2023-01-28T19:04:05.011Z,10.43
2023-01-28T19:06:32.119Z,7.45
2023-01-28T19:09:00.135Z,6.53
2023-01-28T19:11:27.427Z,6.20
2023-01-28T19:13:54.508Z,6.15
2023-01-28T19:16:21.788Z,5.95
2023-01-28T19:18:55.561Z,5.40
2023-01-28T19:21:22.927Z,6.32
2023-01-28T19:23:55.079Z,7.00
2023-01-28T19:26:22.440Z,6.03
2023-01-28T19:28:49.678Z,5.65
2023-01-28T19:31:18.743Z,5.65
2023-01-28T19:33:46.081Z,5.60
2023-01-28T19:36:13.725Z,5.28
2023-01-28T19:38:40.798Z,5.18
2023-01-28T19:41:07.816Z,5.70
2023-01-28T19:43:35.079Z,5.45
2023-01-28T19:46:02.858Z,6.57
2023-01-28T19:48:30.073Z,6.07
2023-01-28T19:50:57.065Z,5.05
2023-01-28T19:53:24.125Z,5.72
2023-01-28T19:55:52.247Z,6.60
2023-01-28T19:58:19.426Z,6.28
2023-01-28T20:00:46.519Z,5.20
2023-01-28T20:03:13.549Z,4.75
2023-01-28T20:05:40.612Z,5.15
2023-01-28T20:08:07.629Z,4.75
2023-01-28T20:10:34.675Z,5.07
2023-01-28T20:13:01.764Z,5.40
2023-01-28T20:15:28.924Z,5.30
2023-01-28T20:17:56.326Z,5.80
2023-01-28T20:20:23.368Z,4.97
2023-01-28T20:22:50.426Z,5.53
2023-01-28T20:25:17.918Z,6.30
2023-01-28T20:27:45.163Z,6.18
2023-01-28T20:30:12.515Z,6.53
2023-01-28T20:32:39.491Z,7.55
2023-01-28T20:35:06.677Z,6.38
2023-01-28T20:37:33.783Z,5.40
2023-01-28T20:40:00.909Z,6.10
2023-01-28T20:42:27.950Z,5.72
2023-01-28T20:44:54.989Z,6.63
2023-01-28T20:47:21.996Z,7.03
2023-01-28T20:49:49.035Z,7.70
2023-01-28T20:52:16.866Z,7.47
2023-01-28T20:54:43.915Z,6.68
2023-01-28T20:57:11.016Z,6.00
2023-01-28T20:59:38.014Z,5.85
2023-01-28T21:02:05.393Z,6.82
2023-01-28T21:04:32.790Z,8.70
2023-01-28T21:06:59.814Z,8.80
2023-01-28T21:09:27.754Z,7.85
2023-01-28T21:11:54.763Z,7.10
2023-01-28T21:14:21.764Z,7.38
2023-01-28T21:16:51.213Z,7.13
2023-01-28T21:19:18.359Z,7.65
2023-01-28T21:21:46.000Z,8.18
2023-01-28T21:24:13.129Z,24.00
2023-01-28T21:26:40.166Z,6.55
2023-01-28T21:29:07.183Z,6.63
2023-01-28T21:31:34.253Z,7.05
2023-01-28T21:34:01.505Z,6.82
2023-01-28T21:36:31.609Z,6.43
2023-01-28T21:38:59.825Z,6.45
2023-01-28T21:41:27.347Z,5.47
2023-01-28T21:43:54.658Z,5.85
2023-01-28T21:46:22.148Z,5.60
2023-01-28T21:48:49.496Z,5.25
2023-01-28T21:51:34.957Z,6.10
2023-01-28T21:54:02.407Z,6.68
2023-01-28T21:56:29.459Z,6.22
2023-01-28T21:59:15.088Z,5.03
2023-01-28T22:01:44.048Z,4.80
2023-01-28T22:04:11.144Z,5.00
2023-01-28T22:06:38.176Z,4.45
2023-01-28T22:09:05.224Z,4.97
2023-01-28T22:11:32.461Z,7.07
2023-01-28T22:13:59.547Z,6.97
2023-01-28T22:16:26.645Z,6.72
2023-01-28T22:18:53.646Z,6.32
2023-01-28T22:21:20.700Z,6.20
2023-01-28T22:23:47.777Z,6.40
2023-01-28T22:26:14.758Z,5.13
2023-01-28T22:28:41.787Z,5.63
2023-01-28T22:31:09.712Z,4.60
2023-01-28T22:33:36.941Z,5.13
2023-01-28T22:39:52.361Z,5.80
2023-01-28T22:42:20.530Z,5.18
2023-01-28T22:44:47.540Z,5.35
2023-01-28T22:47:14.516Z,5.35
2023-01-28T22:49:41.522Z,4.72
2023-01-28T22:52:08.534Z,5.03
2023-01-28T22:54:35.504Z,6.13
2023-01-28T22:57:02.480Z,4.45
2023-01-28T22:59:29.535Z,4.43
2023-01-28T23:01:56.606Z,5.45
2023-01-28T23:04:23.669Z,5.13
2023-01-28T23:06:50.671Z,5.40
2023-01-28T23:09:17.698Z,6.32
2023-01-28T23:11:44.697Z,6.22
2023-01-28T23:14:30.211Z,7.32
2023-01-28T23:17:15.674Z,6.95
2023-01-28T23:20:01.290Z,5.90
2023-01-28T23:22:50.707Z,5.50
2023-01-28T23:25:18.164Z,5.70
2023-01-28T23:27:45.295Z,5.82
2023-01-28T23:30:12.698Z,5.13
2023-01-28T23:32:40.718Z,6.78
2023-01-28T23:35:08.471Z,7.45
2023-01-28T23:37:35.453Z,5.40
2023-01-28T23:40:02.971Z,4.85
2023-01-28T23:42:30.279Z,4.57
2023-01-28T23:44:57.272Z,4.82
2023-01-28T23:47:24.285Z,6.07
2023-01-28T23:49:51.353Z,5.53
2023-01-28T23:52:18.462Z,5.15
2023-01-28T23:54:45.676Z,5.07
2023-01-28T23:57:12.716Z,4.30
2023-01-28T23:59:39.801Z,4.68
